sensor_id;sensor_type;location;lat;lon;timestamp;temperature;humidity
13496;DHT22;6820;49.374;8.452;2023-04-12T00:02:19;12.54;99.99
13496;DHT22;6820;49.374;8.452;2023-04-12T00:06:20;12.52;99.99
13496;DHT22;6820;49.374;8.452;2023-04-12T00:10:32;12.54;99.99
13496;DHT22;6820;49.374;8.452;2023-04-12T00:14:34;12.49;99.99
13496;DHT22;6820;49.374;8.452;2023-04-12T00:18:35;12.51;99.99
13496;DHT22;6820;49.374;8.452;2023-04-12T00:22:37;12.48;99.99
13496;DHT22;6820;49.374;8.452;2023-04-12T00:26:40;12.48;99.99
13496;DHT22;6820;49.374;8.452;2023-04-12T00:30:41;12.38;99.99
13496;DHT22;6820;49.374;8.452;2023-04-12T00:34:43;12.33;99.99
13496;DHT22;6820;49.374;8.452;2023-04-12T00:38:45;12.23;99.99
13496;DHT22;6820;49.374;8.452;2023-04-12T00:42:47;12.07;99.99
13496;DHT22;6820;49.374;8.452;2023-04-12T00:46:49;11.98;99.99
13496;DHT22;6820;49.374;8.452;2023-04-12T00:50:51;12.01;99.99
13496;DHT22;6820;49.374;8.452;2023-04-12T00:54:55;11.96;99.99
13496;DHT22;6820;49.374;8.452;2023-04-12T00:58:57;11.84;99.99
13496;DHT22;6820;49.374;8.452;2023-04-12T01:02:59;11.82;99.99
13496;DHT22;6820;49.374;8.452;2023-04-12T01:07:06;11.72;99.99
13496;DHT22;6820;49.374;8.452;2023-04-12T01:11:19;11.63;99.99
13496;DHT22;6820;49.374;8.452;2023-04-12T01:15:28;11.53;99.99
13496;DHT22;6820;49.374;8.452;2023-04-12T01:19:52;11.53;99.99
13496;DHT22;6820;49.374;8.452;2023-04-12T01:24:00;11.46;99.99
13496;DHT22;6820;49.374;8.452;2023-04-12T01:28:16;11.42;99.99
13496;DHT22;6820;49.374;8.452;2023-04-12T01:32:33;11.39;99.99
13496;DHT22;6820;49.374;8.452;2023-04-12T01:36:38;11.38;99.99
13496;DHT22;6820;49.374;8.452;2023-04-12T01:40:42;11.36;99.99
13496;DHT22;6820;49.374;8.452;2023-04-12T01:44:45;11.35;99.99
13496;DHT22;6820;49.374;8.452;2023-04-12T01:48:50;11.27;99.99
13496;DHT22;6820;49.374;8.452;2023-04-12T01:53:00;11.23;99.99
13496;DHT22;6820;49.374;8.452;2023-04-12T01:57:05;11.21;99.99
13496;DHT22;6820;49.374;8.452;2023-04-12T02:01:09;11.20;99.99
13496;DHT22;6820;49.374;8.452;2023-04-12T02:05:15;11.05;99.99
13496;DHT22;6820;49.374;8.452;2023-04-12T02:09:18;11.01;99.99
13496;DHT22;6820;49.374;8.452;2023-04-12T02:13:20;10.95;99.99
13496;DHT22;6820;49.374;8.452;2023-04-12T02:17:22;10.86;99.99
13496;DHT22;6820;49.374;8.452;2023-04-12T02:21:24;10.86;99.99
13496;DHT22;6820;49.374;8.452;2023-04-12T02:25:28;10.83;99.99
13496;DHT22;6820;49.374;8.452;2023-04-12T02:29:29;10.81;99.99
13496;DHT22;6820;49.374;8.452;2023-04-12T02:33:31;10.73;99.99
13496;DHT22;6820;49.374;8.452;2023-04-12T02:37:34;10.70;99.99
13496;DHT22;6820;49.374;8.452;2023-04-12T02:41:37;10.68;99.99
13496;DHT22;6820;49.374;8.452;2023-04-12T02:45:45;10.63;99.99
13496;DHT22;6820;49.374;8.452;2023-04-12T02:49:48;10.66;99.99
13496;DHT22;6820;49.374;8.452;2023-04-12T02:53:52;10.66;99.99
13496;DHT22;6820;49.374;8.452;2023-04-12T02:57:57;10.62;99.99
13496;DHT22;6820;49.374;8.452;2023-04-12T03:01:59;10.62;99.99
13496;DHT22;6820;49.374;8.452;2023-04-12T03:06:04;10.62;99.99
13496;DHT22;6820;49.374;8.452;2023-04-12T03:10:07;10.62;99.99
13496;DHT22;6820;49.374;8.452;2023-04-12T03:14:14;10.57;99.99
13496;DHT22;6820;49.374;8.452;2023-04-12T03:18:15;10.55;99.99
13496;DHT22;6820;49.374;8.452;2023-04-12T03:22:20;10.55;99.99
13496;DHT22;6820;49.374;8.452;2023-04-12T03:26:29;10.52;99.99
13496;DHT22;6820;49.374;8.452;2023-04-12T03:30:34;10.47;99.99
13496;DHT22;6820;49.374;8.452;2023-04-12T03:34:36;10.43;99.99
13496;DHT22;6820;49.374;8.452;2023-04-12T03:38:45;10.43;99.99
13496;DHT22;6820;49.374;8.452;2023-04-12T03:42:46;10.39;99.99
13496;DHT22;6820;49.374;8.452;2023-04-12T03:46:48;10.36;99.99
13496;DHT22;6820;49.374;8.452;2023-04-12T03:50:51;10.34;99.99
13496;DHT22;6820;49.374;8.452;2023-04-12T03:54:56;10.28;99.99
13496;DHT22;6820;49.374;8.452;2023-04-12T03:59:00;10.24;99.99
13496;DHT22;6820;49.374;8.452;2023-04-12T04:03:03;10.24;99.99
13496;DHT22;6820;49.374;8.452;2023-04-12T04:07:12;10.24;99.99
13496;DHT22;6820;49.374;8.452;2023-04-12T04:11:16;10.20;99.99
13496;DHT22;6820;49.374;8.452;2023-04-12T04:15:26;10.17;99.99
13496;DHT22;6820;49.374;8.452;2023-04-12T04:19:28;10.13;99.99
13496;DHT22;6820;49.374;8.452;2023-04-12T04:23:30;10.07;99.99
13496;DHT22;6820;49.374;8.452;2023-04-12T04:27:42;10.07;99.99
13496;DHT22;6820;49.374;8.452;2023-04-12T04:31:46;10.10;99.99
13496;DHT22;6820;49.374;8.452;2023-04-12T04:35:49;10.07;99.99
13496;DHT22;6820;49.374;8.452;2023-04-12T04:40:15;10.10;99.99
13496;DHT22;6820;49.374;8.452;2023-04-12T04:44:18;10.09;99.99
13496;DHT22;6820;49.374;8.452;2023-04-12T04:48:26;10.02;99.99
13496;DHT22;6820;49.374;8.452;2023-04-12T04:52:30;10.04;99.99
13496;DHT22;6820;49.374;8.452;2023-04-12T04:56:37;10.04;99.99
13496;DHT22;6820;49.374;8.452;2023-04-12T05:00:39;10.06;99.99
13496;DHT22;6820;49.374;8.452;2023-04-12T05:04:41;10.06;99.99
13496;DHT22;6820;49.374;8.452;2023-04-12T05:08:45;10.06;99.99
13496;DHT22;6820;49.374;8.452;2023-04-12T05:12:49;10.04;99.99
13496;DHT22;6820;49.374;8.452;2023-04-12T05:16:52;10.04;99.99
13496;DHT22;6820;49.374;8.452;2023-04-12T05:20:54;10.06;99.99
13496;DHT22;6820;49.374;8.452;2023-04-12T05:24:56;10.04;99.99
13496;DHT22;6820;49.374;8.452;2023-04-12T05:29:02;10.02;99.99
13496;DHT22;6820;49.374;8.452;2023-04-12T05:33:04;9.96;99.99
13496;DHT22;6820;49.374;8.452;2023-04-12T05:37:06;9.98;99.99
13496;DHT22;6820;49.374;8.452;2023-04-12T05:41:11;9.93;99.99
13496;DHT22;6820;49.374;8.452;2023-04-12T05:45:13;9.92;99.99
13496;DHT22;6820;49.374;8.452;2023-04-12T05:49:16;9.89;99.99
13496;DHT22;6820;49.374;8.452;2023-04-12T05:53:19;9.89;99.99
13496;DHT22;6820;49.374;8.452;2023-04-12T05:57:22;9.93;99.99
13496;DHT22;6820;49.374;8.452;2023-04-12T06:01:24;9.95;99.99
13496;DHT22;6820;49.374;8.452;2023-04-12T06:05:33;9.93;99.99
13496;DHT22;6820;49.374;8.452;2023-04-12T06:09:36;9.91;99.99
13496;DHT22;6820;49.374;8.452;2023-04-12T06:13:37;9.93;99.99
13496;DHT22;6820;49.374;8.452;2023-04-12T06:17:39;9.96;99.99
13496;DHT22;6820;49.374;8.452;2023-04-12T06:21:41;9.96;99.99
13496;DHT22;6820;49.374;8.452;2023-04-12T06:25:43;10.04;99.99
13496;DHT22;6820;49.374;8.452;2023-04-12T06:29:44;10.04;99.99
13496;DHT22;6820;49.374;8.452;2023-04-12T06:33:46;10.10;99.99
13496;DHT22;6820;49.374;8.452;2023-04-12T06:37:48;10.14;99.99
13496;DHT22;6820;49.374;8.452;2023-04-12T06:41:50;10.17;99.99
13496;DHT22;6820;49.374;8.452;2023-04-12T06:45:54;10.17;99.99
13496;DHT22;6820;49.374;8.452;2023-04-12T06:49:57;10.18;99.99
13496;DHT22;6820;49.374;8.452;2023-04-12T06:53:58;10.20;99.99
13496;DHT22;6820;49.374;8.452;2023-04-12T06:58:00;10.25;99.99
13496;DHT22;6820;49.374;8.452;2023-04-12T07:02:02;10.32;99.99
13496;DHT22;6820;49.374;8.452;2023-04-12T07:06:04;10.36;99.99
13496;DHT22;6820;49.374;8.452;2023-04-12T07:10:24;10.38;99.99
13496;DHT22;6820;49.374;8.452;2023-04-12T07:14:26;10.44;99.99
13496;DHT22;6820;49.374;8.452;2023-04-12T07:18:27;10.51;99.99
13496;DHT22;6820;49.374;8.452;2023-04-12T07:22:29;10.55;99.99
13496;DHT22;6820;49.374;8.452;2023-04-12T07:26:31;10.62;99.99
13496;DHT22;6820;49.374;8.452;2023-04-12T07:30:32;10.63;99.99
13496;DHT22;6820;49.374;8.452;2023-04-12T07:34:34;10.57;99.99
13496;DHT22;6820;49.374;8.452;2023-04-12T07:38:37;10.65;99.99
13496;DHT22;6820;49.374;8.452;2023-04-12T07:42:38;10.66;99.99
13496;DHT22;6820;49.374;8.452;2023-04-12T07:46:40;10.66;99.99
13496;DHT22;6820;49.374;8.452;2023-04-12T07:50:44;10.69;99.99
13496;DHT22;6820;49.374;8.452;2023-04-12T07:54:47;10.69;99.99
13496;DHT22;6820;49.374;8.452;2023-04-12T07:58:48;10.75;99.99
13496;DHT22;6820;49.374;8.452;2023-04-12T08:02:50;10.76;99.99
13496;DHT22;6820;49.374;8.452;2023-04-12T08:06:52;10.80;99.99
13496;DHT22;6820;49.374;8.452;2023-04-12T08:10:54;10.94;99.99
13496;DHT22;6820;49.374;8.452;2023-04-12T08:14:56;11.11;99.99
13496;DHT22;6820;49.374;8.452;2023-04-12T08:18:57;11.21;99.99
13496;DHT22;6820;49.374;8.452;2023-04-12T08:22:59;11.33;99.99
13496;DHT22;6820;49.374;8.452;2023-04-12T08:27:01;11.45;99.99
13496;DHT22;6820;49.374;8.452;2023-04-12T08:31:02;11.63;99.99
13496;DHT22;6820;49.374;8.452;2023-04-12T08:35:04;11.84;99.99
13496;DHT22;6820;49.374;8.452;2023-04-12T08:39:06;12.04;99.99
13496;DHT22;6820;49.374;8.452;2023-04-12T08:43:08;12.13;99.99
13496;DHT22;6820;49.374;8.452;2023-04-12T08:47:12;12.22;99.99
13496;DHT22;6820;49.374;8.452;2023-04-12T08:51:17;12.26;99.99
13496;DHT22;6820;49.374;8.452;2023-04-12T08:55:20;12.23;99.99
13496;DHT22;6820;49.374;8.452;2023-04-12T08:59:21;12.23;99.99
13496;DHT22;6820;49.374;8.452;2023-04-12T09:03:24;12.26;99.99
13496;DHT22;6820;49.374;8.452;2023-04-12T09:07:27;12.43;99.99
13496;DHT22;6820;49.374;8.452;2023-04-12T09:11:30;12.41;99.99
13496;DHT22;6820;49.374;8.452;2023-04-12T09:15:33;12.44;99.99
13496;DHT22;6820;49.374;8.452;2023-04-12T09:19:34;12.48;99.99
13496;DHT22;6820;49.374;8.452;2023-04-12T09:23:36;12.48;99.99
13496;DHT22;6820;49.374;8.452;2023-04-12T09:27:47;12.49;99.99
13496;DHT22;6820;49.374;8.452;2023-04-12T09:31:59;12.62;99.99
13496;DHT22;6820;49.374;8.452;2023-04-12T09:36:03;12.74;99.99
13496;DHT22;6820;49.374;8.452;2023-04-12T09:40:07;12.71;99.99
13496;DHT22;6820;49.374;8.452;2023-04-12T09:44:12;12.69;99.99
13496;DHT22;6820;49.374;8.452;2023-04-12T09:48:29;12.69;99.99
13496;DHT22;6820;49.374;8.452;2023-04-12T09:52:34;12.70;99.99
13496;DHT22;6820;49.374;8.452;2023-04-12T09:56:38;12.70;99.99
13496;DHT22;6820;49.374;8.452;2023-04-12T10:00:42;12.63;99.99
13496;DHT22;6820;49.374;8.452;2023-04-12T10:04:46;12.62;99.99
13496;DHT22;6820;49.374;8.452;2023-04-12T10:08:48;12.56;99.99
13496;DHT22;6820;49.374;8.452;2023-04-12T10:12:50;12.61;99.99
13496;DHT22;6820;49.374;8.452;2023-04-12T10:16:52;12.66;99.99
13496;DHT22;6820;49.374;8.452;2023-04-12T10:20:59;12.71;99.99
13496;DHT22;6820;49.374;8.452;2023-04-12T10:25:01;12.74;99.99
13496;DHT22;6820;49.374;8.452;2023-04-12T10:33:30;12.85;99.99
13496;DHT22;6820;49.374;8.452;2023-04-12T10:50:40;12.96;99.99
13496;DHT22;6820;49.374;8.452;2023-04-12T10:54:42;12.98;99.99
13496;DHT22;6820;49.374;8.452;2023-04-12T11:03:02;13.12;99.99
13496;DHT22;6820;49.374;8.452;2023-04-12T11:07:09;13.03;99.99
13496;DHT22;6820;49.374;8.452;2023-04-12T11:11:19;13.14;99.99
13496;DHT22;6820;49.374;8.452;2023-04-12T11:15:25;13.36;99.99
13496;DHT22;6820;49.374;8.452;2023-04-12T11:19:38;13.27;99.99
13496;DHT22;6820;49.374;8.452;2023-04-12T11:23:41;13.21;99.99
13496;DHT22;6820;49.374;8.452;2023-04-12T11:27:48;13.19;99.99
13496;DHT22;6820;49.374;8.452;2023-04-12T11:31:51;13.28;99.99
13496;DHT22;6820;49.374;8.452;2023-04-12T11:35:53;13.38;99.99
13496;DHT22;6820;49.374;8.452;2023-04-12T11:39:56;13.47;99.99
13496;DHT22;6820;49.374;8.452;2023-04-12T11:43:58;13.46;99.99
13496;DHT22;6820;49.374;8.452;2023-04-12T11:48:00;13.38;99.99
13496;DHT22;6820;49.374;8.452;2023-04-12T11:52:02;13.38;99.99
13496;DHT22;6820;49.374;8.452;2023-04-12T11:56:04;13.39;99.99
13496;DHT22;6820;49.374;8.452;2023-04-12T12:00:07;13.36;99.99
13496;DHT22;6820;49.374;8.452;2023-04-12T12:04:14;13.35;99.99
13496;DHT22;6820;49.374;8.452;2023-04-12T12:08:16;13.35;99.99
13496;DHT22;6820;49.374;8.452;2023-04-12T12:12:20;13.51;99.99
13496;DHT22;6820;49.374;8.452;2023-04-12T12:16:27;13.94;99.99
13496;DHT22;6820;49.374;8.452;2023-04-12T12:20:30;14.31;99.99
13496;DHT22;6820;49.374;8.452;2023-04-12T12:24:32;14.53;99.99
13496;DHT22;6820;49.374;8.452;2023-04-12T12:28:37;14.31;99.99
13496;DHT22;6820;49.374;8.452;2023-04-12T12:32:40;14.12;99.99
13496;DHT22;6820;49.374;8.452;2023-04-12T12:36:41;13.96;99.99
13496;DHT22;6820;49.374;8.452;2023-04-12T12:40:43;13.76;99.99
13496;DHT22;6820;49.374;8.452;2023-04-12T12:44:45;13.69;99.99
13496;DHT22;6820;49.374;8.452;2023-04-12T12:48:46;13.66;99.99
13496;DHT22;6820;49.374;8.452;2023-04-12T12:52:49;13.68;99.99
13496;DHT22;6820;49.374;8.452;2023-04-12T12:56:50;13.65;99.99
13496;DHT22;6820;49.374;8.452;2023-04-12T13:00:52;13.62;99.99
13496;DHT22;6820;49.374;8.452;2023-04-12T13:04:54;13.71;99.99
13496;DHT22;6820;49.374;8.452;2023-04-12T13:08:57;13.84;99.99
13496;DHT22;6820;49.374;8.452;2023-04-12T13:12:59;13.96;99.99
13496;DHT22;6820;49.374;8.452;2023-04-12T13:17:02;13.98;99.99
13496;DHT22;6820;49.374;8.452;2023-04-12T13:21:03;14.06;99.99
13496;DHT22;6820;49.374;8.452;2023-04-12T13:25:05;14.05;99.99
13496;DHT22;6820;49.374;8.452;2023-04-12T13:29:07;14.01;99.99
13496;DHT22;6820;49.374;8.452;2023-04-12T13:33:08;14.02;99.99
13496;DHT22;6820;49.374;8.452;2023-04-12T13:37:10;14.16;99.99
13496;DHT22;6820;49.374;8.452;2023-04-12T13:41:12;13.99;99.99
13496;DHT22;6820;49.374;8.452;2023-04-12T13:45:14;13.86;99.99
13496;DHT22;6820;49.374;8.452;2023-04-12T13:49:15;13.87;99.99
13496;DHT22;6820;49.374;8.452;2023-04-12T13:53:17;13.99;99.99
13496;DHT22;6820;49.374;8.452;2023-04-12T13:57:18;14.24;99.99
13496;DHT22;6820;49.374;8.452;2023-04-12T14:01:20;14.16;99.99
13496;DHT22;6820;49.374;8.452;2023-04-12T14:05:24;14.08;99.99
13496;DHT22;6820;49.374;8.452;2023-04-12T14:09:26;13.93;99.99
13496;DHT22;6820;49.374;8.452;2023-04-12T14:13:29;13.88;99.99
13496;DHT22;6820;49.374;8.452;2023-04-12T14:17:31;13.80;99.99
13496;DHT22;6820;49.374;8.452;2023-04-12T14:21:33;13.72;99.99
13496;DHT22;6820;49.374;8.452;2023-04-12T14:25:37;13.69;99.99
13496;DHT22;6820;49.374;8.452;2023-04-12T14:29:39;13.57;99.99
13496;DHT22;6820;49.374;8.452;2023-04-12T14:33:41;13.50;99.99
13496;DHT22;6820;49.374;8.452;2023-04-12T14:37:42;13.54;99.99
13496;DHT22;6820;49.374;8.452;2023-04-12T14:41:44;13.69;99.99
13496;DHT22;6820;49.374;8.452;2023-04-12T14:45:46;13.75;99.99
13496;DHT22;6820;49.374;8.452;2023-04-12T14:49:48;13.79;99.99
13496;DHT22;6820;49.374;8.452;2023-04-12T14:53:49;13.90;99.99
13496;DHT22;6820;49.374;8.452;2023-04-12T14:57:51;13.79;99.99
13496;DHT22;6820;49.374;8.452;2023-04-12T15:01:53;13.65;99.99
13496;DHT22;6820;49.374;8.452;2023-04-12T15:05:54;13.54;99.99
13496;DHT22;6820;49.374;8.452;2023-04-12T15:09:58;13.69;99.99
13496;DHT22;6820;49.374;8.452;2023-04-12T15:14:01;13.71;99.99
13496;DHT22;6820;49.374;8.452;2023-04-12T15:18:07;13.69;99.99
13496;DHT22;6820;49.374;8.452;2023-04-12T15:22:11;13.71;99.99
13496;DHT22;6820;49.374;8.452;2023-04-12T15:26:14;14.23;99.99
13496;DHT22;6820;49.374;8.452;2023-04-12T15:30:16;14.41;99.99
13496;DHT22;6820;49.374;8.452;2023-04-12T15:34:18;14.23;99.99
13496;DHT22;6820;49.374;8.452;2023-04-12T15:38:19;14.19;99.99
13496;DHT22;6820;49.374;8.452;2023-04-12T15:42:24;14.20;99.99
13496;DHT22;6820;49.374;8.452;2023-04-12T15:46:25;14.35;99.99
13496;DHT22;6820;49.374;8.452;2023-04-12T15:50:27;14.52;99.99
13496;DHT22;6820;49.374;8.452;2023-04-12T15:54:30;15.16;99.99
13496;DHT22;6820;49.374;8.452;2023-04-12T15:58:32;15.81;99.99
13496;DHT22;6820;49.374;8.452;2023-04-12T16:02:34;16.14;99.99
13496;DHT22;6820;49.374;8.452;2023-04-12T16:06:36;16.13;99.99
13496;DHT22;6820;49.374;8.452;2023-04-12T16:10:38;16.29;99.99
13496;DHT22;6820;49.374;8.452;2023-04-12T16:14:40;16.37;99.99
13496;DHT22;6820;49.374;8.452;2023-04-12T16:18:43;16.50;99.99
13496;DHT22;6820;49.374;8.452;2023-04-12T16:22:46;16.44;99.99
13496;DHT22;6820;49.374;8.452;2023-04-12T16:26:49;16.47;99.99
13496;DHT22;6820;49.374;8.452;2023-04-12T16:30:51;16.52;99.99
13496;DHT22;6820;49.374;8.452;2023-04-12T16:34:53;16.45;99.99
13496;DHT22;6820;49.374;8.452;2023-04-12T16:38:55;16.10;99.99
13496;DHT22;6820;49.374;8.452;2023-04-12T16:42:59;16.03;99.99
13496;DHT22;6820;49.374;8.452;2023-04-12T16:47:01;15.93;99.99
13496;DHT22;6820;49.374;8.452;2023-04-12T16:51:03;15.96;99.99
13496;DHT22;6820;49.374;8.452;2023-04-12T16:55:05;15.93;99.99
13496;DHT22;6820;49.374;8.452;2023-04-12T16:59:07;15.80;99.99
13496;DHT22;6820;49.374;8.452;2023-04-12T17:03:10;15.66;99.99
13496;DHT22;6820;49.374;8.452;2023-04-12T17:07:12;15.53;99.99
13496;DHT22;6820;49.374;8.452;2023-04-12T17:11:14;15.41;99.99
13496;DHT22;6820;49.374;8.452;2023-04-12T17:15:17;15.22;99.99
13496;DHT22;6820;49.374;8.452;2023-04-12T17:19:19;15.27;99.99
13496;DHT22;6820;49.374;8.452;2023-04-12T17:23:21;15.30;99.99
13496;DHT22;6820;49.374;8.452;2023-04-12T17:27:23;15.19;99.99
13496;DHT22;6820;49.374;8.452;2023-04-12T17:31:24;14.97;99.99
13496;DHT22;6820;49.374;8.452;2023-04-12T17:35:27;14.78;99.99
13496;DHT22;6820;49.374;8.452;2023-04-12T17:39:29;14.56;99.99
13496;DHT22;6820;49.374;8.452;2023-04-12T17:43:31;14.45;99.99
13496;DHT22;6820;49.374;8.452;2023-04-12T17:47:33;14.42;99.99
13496;DHT22;6820;49.374;8.452;2023-04-12T17:51:35;14.30;99.99
13496;DHT22;6820;49.374;8.452;2023-04-12T17:55:36;14.24;99.99
13496;DHT22;6820;49.374;8.452;2023-04-12T17:59:38;14.11;99.99
13496;DHT22;6820;49.374;8.452;2023-04-12T18:03:40;13.98;99.99
13496;DHT22;6820;49.374;8.452;2023-04-12T18:07:42;13.83;99.99
13496;DHT22;6820;49.374;8.452;2023-04-12T18:11:44;13.66;99.99
13496;DHT22;6820;49.374;8.452;2023-04-12T18:15:47;13.53;99.99
13496;DHT22;6820;49.374;8.452;2023-04-12T18:19:48;13.43;99.99
13496;DHT22;6820;49.374;8.452;2023-04-12T18:23:50;13.29;99.99
13496;DHT22;6820;49.374;8.452;2023-04-12T18:27:52;13.17;99.99
13496;DHT22;6820;49.374;8.452;2023-04-12T18:31:54;13.03;99.99
13496;DHT22;6820;49.374;8.452;2023-04-12T18:35:56;12.95;99.99
13496;DHT22;6820;49.374;8.452;2023-04-12T18:39:59;12.85;99.99
13496;DHT22;6820;49.374;8.452;2023-04-12T18:44:00;12.71;99.99
13496;DHT22;6820;49.374;8.452;2023-04-12T18:48:02;12.63;99.99
13496;DHT22;6820;49.374;8.452;2023-04-12T18:52:04;12.61;99.99
13496;DHT22;6820;49.374;8.452;2023-04-12T18:56:09;12.55;99.99
13496;DHT22;6820;49.374;8.452;2023-04-12T19:00:12;12.54;99.99
13496;DHT22;6820;49.374;8.452;2023-04-12T19:04:17;12.55;99.99
13496;DHT22;6820;49.374;8.452;2023-04-12T19:08:18;12.59;99.99
13496;DHT22;6820;49.374;8.452;2023-04-12T19:12:20;12.61;99.99
13496;DHT22;6820;49.374;8.452;2023-04-12T19:16:22;12.58;99.99
13496;DHT22;6820;49.374;8.452;2023-04-12T19:20:24;12.49;99.99
13496;DHT22;6820;49.374;8.452;2023-04-12T19:24:26;12.40;99.99
13496;DHT22;6820;49.374;8.452;2023-04-12T19:28:28;12.31;99.99
13496;DHT22;6820;49.374;8.452;2023-04-12T19:32:29;12.23;99.99
13496;DHT22;6820;49.374;8.452;2023-04-12T19:36:31;12.19;99.99
13496;DHT22;6820;49.374;8.452;2023-04-12T19:40:33;12.15;99.99
13496;DHT22;6820;49.374;8.452;2023-04-12T19:44:34;12.12;99.99
13496;DHT22;6820;49.374;8.452;2023-04-12T19:48:40;12.05;99.99
13496;DHT22;6820;49.374;8.452;2023-04-12T19:52:42;12.05;99.99
13496;DHT22;6820;49.374;8.452;2023-04-12T19:56:44;12.04;99.99
13496;DHT22;6820;49.374;8.452;2023-04-12T20:00:49;11.97;99.99
13496;DHT22;6820;49.374;8.452;2023-04-12T20:04:55;11.97;99.99
13496;DHT22;6820;49.374;8.452;2023-04-12T20:08:56;11.93;99.99
13496;DHT22;6820;49.374;8.452;2023-04-12T20:12:58;11.87;99.99
13496;DHT22;6820;49.374;8.452;2023-04-12T20:17:00;11.84;99.99
13496;DHT22;6820;49.374;8.452;2023-04-12T20:21:02;11.81;99.99
13496;DHT22;6820;49.374;8.452;2023-04-12T20:25:06;11.75;99.99
13496;DHT22;6820;49.374;8.452;2023-04-12T20:29:10;11.72;99.99
13496;DHT22;6820;49.374;8.452;2023-04-12T20:33:12;11.67;99.99
13496;DHT22;6820;49.374;8.452;2023-04-12T20:37:15;11.66;99.99
13496;DHT22;6820;49.374;8.452;2023-04-12T20:41:17;11.62;99.99
13496;DHT22;6820;49.374;8.452;2023-04-12T20:45:19;11.59;99.99
13496;DHT22;6820;49.374;8.452;2023-04-12T20:49:22;11.59;99.99
13496;DHT22;6820;49.374;8.452;2023-04-12T20:53:26;11.59;99.99
13496;DHT22;6820;49.374;8.452;2023-04-12T20:57:29;11.54;99.99
13496;DHT22;6820;49.374;8.452;2023-04-12T21:01:31;11.53;99.99
13496;DHT22;6820;49.374;8.452;2023-04-12T21:05:32;11.49;99.99
13496;DHT22;6820;49.374;8.452;2023-04-12T21:09:34;11.48;99.99
13496;DHT22;6820;49.374;8.452;2023-04-12T21:13:37;11.45;99.99
13496;DHT22;6820;49.374;8.452;2023-04-12T21:17:38;11.41;99.99
13496;DHT22;6820;49.374;8.452;2023-04-12T21:21:41;11.41;99.99
13496;DHT22;6820;49.374;8.452;2023-04-12T21:25:43;11.35;99.99
13496;DHT22;6820;49.374;8.452;2023-04-12T21:29:48;11.27;99.99
13496;DHT22;6820;49.374;8.452;2023-04-12T21:33:50;11.19;99.99
13496;DHT22;6820;49.374;8.452;2023-04-12T21:37:52;11.12;99.99
13496;DHT22;6820;49.374;8.452;2023-04-12T21:41:54;11.05;99.99
13496;DHT22;6820;49.374;8.452;2023-04-12T21:45:58;10.98;99.99
13496;DHT22;6820;49.374;8.452;2023-04-12T21:50:00;10.90;99.99
13496;DHT22;6820;49.374;8.452;2023-04-12T21:54:02;10.86;99.99
13496;DHT22;6820;49.374;8.452;2023-04-12T21:58:04;10.83;99.99
13496;DHT22;6820;49.374;8.452;2023-04-12T22:02:06;10.75;99.99
13496;DHT22;6820;49.374;8.452;2023-04-12T22:06:08;10.69;99.99
13496;DHT22;6820;49.374;8.452;2023-04-12T22:10:11;10.66;99.99
13496;DHT22;6820;49.374;8.452;2023-04-12T22:14:14;10.68;99.99
13496;DHT22;6820;49.374;8.452;2023-04-12T22:18:15;10.66;99.99
13496;DHT22;6820;49.374;8.452;2023-04-12T22:22:17;10.60;99.99
13496;DHT22;6820;49.374;8.452;2023-04-12T22:26:19;10.58;99.99
13496;DHT22;6820;49.374;8.452;2023-04-12T22:30:21;10.52;99.99
13496;DHT22;6820;49.374;8.452;2023-04-12T22:34:24;10.52;99.99
13496;DHT22;6820;49.374;8.452;2023-04-12T22:38:26;10.44;99.99
13496;DHT22;6820;49.374;8.452;2023-04-12T22:42:28;10.36;99.99
13496;DHT22;6820;49.374;8.452;2023-04-12T22:46:30;10.32;99.99
13496;DHT22;6820;49.374;8.452;2023-04-12T22:50:32;10.29;99.99
13496;DHT22;6820;49.374;8.452;2023-04-12T22:54:34;10.25;99.99
13496;DHT22;6820;49.374;8.452;2023-04-12T22:58:36;10.22;99.99
13496;DHT22;6820;49.374;8.452;2023-04-12T23:02:37;10.16;99.99
13496;DHT22;6820;49.374;8.452;2023-04-12T23:06:39;10.16;99.99
13496;DHT22;6820;49.374;8.452;2023-04-12T23:10:42;10.16;99.99
13496;DHT22;6820;49.374;8.452;2023-04-12T23:14:44;10.11;99.99
13496;DHT22;6820;49.374;8.452;2023-04-12T23:18:46;10.06;99.99
13496;DHT22;6820;49.374;8.452;2023-04-12T23:22:48;10.01;99.99
13496;DHT22;6820;49.374;8.452;2023-04-12T23:26:58;10.02;99.99
13496;DHT22;6820;49.374;8.452;2023-04-12T23:31:00;9.93;99.99
13496;DHT22;6820;49.374;8.452;2023-04-12T23:35:02;9.86;99.99
13496;DHT22;6820;49.374;8.452;2023-04-12T23:39:04;9.85;99.99
13496;DHT22;6820;49.374;8.452;2023-04-12T23:43:09;9.80;99.99
13496;DHT22;6820;49.374;8.452;2023-04-12T23:47:11;9.77;99.99
13496;DHT22;6820;49.374;8.452;2023-04-12T23:51:12;9.75;99.99
13496;DHT22;6820;49.374;8.452;2023-04-12T23:55:14;9.73;99.99
13496;DHT22;6820;49.374;8.452;2023-04-12T23:59:16;9.70;99.99
